sensor_id;sensor_type;location;lat;lon;timestamp;temperature;humidity
76567;DHT22;65428;53.194;6.132;2023-06-14T00:01:47;15.30;99.90
76567;DHT22;65428;53.194;6.132;2023-06-14T00:04:13;15.20;99.90
76567;DHT22;65428;53.194;6.132;2023-06-14T00:06:39;15.10;99.90
76567;DHT22;65428;53.194;6.132;2023-06-14T00:09:06;15.00;99.90
76567;DHT22;65428;53.194;6.132;2023-06-14T00:11:34;15.10;99.90
76567;DHT22;65428;53.194;6.132;2023-06-14T00:13:59;14.90;99.90
76567;DHT22;65428;53.194;6.132;2023-06-14T00:16:25;15.00;99.90
76567;DHT22;65428;53.194;6.132;2023-06-14T00:18:51;14.90;99.90
76567;DHT22;65428;53.194;6.132;2023-06-14T00:21:19;14.90;99.90
76567;DHT22;65428;53.194;6.132;2023-06-14T00:23:45;15.00;99.90
76567;DHT22;65428;53.194;6.132;2023-06-14T00:26:11;14.80;99.90
76567;DHT22;65428;53.194;6.132;2023-06-14T00:28:36;14.90;99.90
76567;DHT22;65428;53.194;6.132;2023-06-14T00:31:02;14.70;99.90
76567;DHT22;65428;53.194;6.132;2023-06-14T00:33:27;14.70;99.90
76567;DHT22;65428;53.194;6.132;2023-06-14T00:35:53;14.90;99.90
76567;DHT22;65428;53.194;6.132;2023-06-14T00:38:20;14.60;99.90
76567;DHT22;65428;53.194;6.132;2023-06-14T00:40:46;14.60;99.90
76567;DHT22;65428;53.194;6.132;2023-06-14T00:43:12;14.50;99.90
76567;DHT22;65428;53.194;6.132;2023-06-14T00:45:38;14.50;99.90
76567;DHT22;65428;53.194;6.132;2023-06-14T00:48:05;14.40;99.90
76567;DHT22;65428;53.194;6.132;2023-06-14T00:50:32;14.40;99.90
76567;DHT22;65428;53.194;6.132;2023-06-14T00:52:59;14.40;99.90
76567;DHT22;65428;53.194;6.132;2023-06-14T00:55:26;14.20;99.90
76567;DHT22;65428;53.194;6.132;2023-06-14T00:57:53;14.30;99.90
76567;DHT22;65428;53.194;6.132;2023-06-14T01:00:19;14.30;99.90
76567;DHT22;65428;53.194;6.132;2023-06-14T01:02:45;14.20;99.90
76567;DHT22;65428;53.194;6.132;2023-06-14T01:05:11;14.40;99.90
76567;DHT22;65428;53.194;6.132;2023-06-14T01:10:31;14.10;99.90
76567;DHT22;65428;53.194;6.132;2023-06-14T01:15:41;14.00;99.90
76567;DHT22;65428;53.194;6.132;2023-06-14T01:18:08;14.00;99.90
76567;DHT22;65428;53.194;6.132;2023-06-14T01:20:44;14.00;99.90
76567;DHT22;65428;53.194;6.132;2023-06-14T01:23:18;14.00;99.90
76567;DHT22;65428;53.194;6.132;2023-06-14T01:25:44;14.10;99.90
76567;DHT22;65428;53.194;6.132;2023-06-14T01:28:10;14.10;99.90
76567;DHT22;65428;53.194;6.132;2023-06-14T01:30:39;13.90;99.90
76567;DHT22;65428;53.194;6.132;2023-06-14T01:33:13;13.90;99.90
76567;DHT22;65428;53.194;6.132;2023-06-14T01:35:44;13.90;99.90
76567;DHT22;65428;53.194;6.132;2023-06-14T01:38:12;13.80;99.90
76567;DHT22;65428;53.194;6.132;2023-06-14T01:40:39;13.80;99.90
76567;DHT22;65428;53.194;6.132;2023-06-14T01:43:05;13.80;99.90
76567;DHT22;65428;53.194;6.132;2023-06-14T01:45:33;13.80;99.90
76567;DHT22;65428;53.194;6.132;2023-06-14T01:47:59;13.70;99.90
76567;DHT22;65428;53.194;6.132;2023-06-14T01:50:31;13.70;99.90
76567;DHT22;65428;53.194;6.132;2023-06-14T01:52:57;13.70;99.90
76567;DHT22;65428;53.194;6.132;2023-06-14T01:55:23;13.70;99.90
76567;DHT22;65428;53.194;6.132;2023-06-14T01:57:51;13.70;99.90
76567;DHT22;65428;53.194;6.132;2023-06-14T02:00:17;13.60;99.90
76567;DHT22;65428;53.194;6.132;2023-06-14T02:02:44;13.60;99.90
76567;DHT22;65428;53.194;6.132;2023-06-14T02:05:09;13.80;99.90
76567;DHT22;65428;53.194;6.132;2023-06-14T02:07:36;13.70;99.90
76567;DHT22;65428;53.194;6.132;2023-06-14T02:10:03;13.70;99.90
76567;DHT22;65428;53.194;6.132;2023-06-14T02:12:29;13.60;99.90
76567;DHT22;65428;53.194;6.132;2023-06-14T02:14:55;13.50;99.90
76567;DHT22;65428;53.194;6.132;2023-06-14T02:17:22;13.60;99.90
76567;DHT22;65428;53.194;6.132;2023-06-14T02:19:48;13.50;99.90
76567;DHT22;65428;53.194;6.132;2023-06-14T02:22:14;13.60;99.90
76567;DHT22;65428;53.194;6.132;2023-06-14T02:24:41;13.50;99.90
76567;DHT22;65428;53.194;6.132;2023-06-14T02:27:07;13.50;99.90
76567;DHT22;65428;53.194;6.132;2023-06-14T02:29:36;13.40;99.90
76567;DHT22;65428;53.194;6.132;2023-06-14T02:32:01;13.40;99.90
76567;DHT22;65428;53.194;6.132;2023-06-14T02:34:27;13.30;99.90
76567;DHT22;65428;53.194;6.132;2023-06-14T02:36:53;13.40;99.90
76567;DHT22;65428;53.194;6.132;2023-06-14T02:39:19;13.30;99.90
76567;DHT22;65428;53.194;6.132;2023-06-14T02:41:46;13.50;99.90
76567;DHT22;65428;53.194;6.132;2023-06-14T02:44:13;13.50;99.90
76567;DHT22;65428;53.194;6.132;2023-06-14T02:46:39;13.20;99.90
76567;DHT22;65428;53.194;6.132;2023-06-14T02:49:05;13.30;99.90
76567;DHT22;65428;53.194;6.132;2023-06-14T02:51:30;13.20;99.90
76567;DHT22;65428;53.194;6.132;2023-06-14T02:53:56;13.10;99.90
76567;DHT22;65428;53.194;6.132;2023-06-14T02:56:22;13.10;99.90
76567;DHT22;65428;53.194;6.132;2023-06-14T02:58:48;13.10;99.90
76567;DHT22;65428;53.194;6.132;2023-06-14T03:01:14;13.00;99.90
76567;DHT22;65428;53.194;6.132;2023-06-14T03:03:40;13.10;99.90
76567;DHT22;65428;53.194;6.132;2023-06-14T03:06:05;13.10;99.90
76567;DHT22;65428;53.194;6.132;2023-06-14T03:08:33;13.00;99.90
76567;DHT22;65428;53.194;6.132;2023-06-14T03:11:04;13.00;99.90
76567;DHT22;65428;53.194;6.132;2023-06-14T03:13:31;13.30;99.90
76567;DHT22;65428;53.194;6.132;2023-06-14T03:15:59;12.90;99.90
76567;DHT22;65428;53.194;6.132;2023-06-14T03:18:29;12.90;99.90
76567;DHT22;65428;53.194;6.132;2023-06-14T03:20:56;13.10;99.90
76567;DHT22;65428;53.194;6.132;2023-06-14T03:23:24;12.90;99.90
76567;DHT22;65428;53.194;6.132;2023-06-14T03:25:51;13.00;99.90
76567;DHT22;65428;53.194;6.132;2023-06-14T03:28:17;12.90;99.90
76567;DHT22;65428;53.194;6.132;2023-06-14T03:30:42;12.80;99.90
76567;DHT22;65428;53.194;6.132;2023-06-14T03:33:08;12.80;99.90
76567;DHT22;65428;53.194;6.132;2023-06-14T03:35:34;12.80;99.90
76567;DHT22;65428;53.194;6.132;2023-06-14T03:38:00;12.80;99.90
76567;DHT22;65428;53.194;6.132;2023-06-14T03:40:26;12.80;99.90
76567;DHT22;65428;53.194;6.132;2023-06-14T03:42:53;13.00;99.90
76567;DHT22;65428;53.194;6.132;2023-06-14T03:45:19;12.70;99.90
76567;DHT22;65428;53.194;6.132;2023-06-14T03:47:44;12.80;99.90
76567;DHT22;65428;53.194;6.132;2023-06-14T03:50:10;12.80;99.90
76567;DHT22;65428;53.194;6.132;2023-06-14T03:52:36;12.80;99.90
76567;DHT22;65428;53.194;6.132;2023-06-14T03:55:02;12.80;99.90
76567;DHT22;65428;53.194;6.132;2023-06-14T03:57:29;12.80;99.90
76567;DHT22;65428;53.194;6.132;2023-06-14T03:59:55;13.00;99.90
76567;DHT22;65428;53.194;6.132;2023-06-14T04:02:21;12.90;99.90
76567;DHT22;65428;53.194;6.132;2023-06-14T04:04:48;12.90;99.90
76567;DHT22;65428;53.194;6.132;2023-06-14T04:07:14;13.00;99.90
76567;DHT22;65428;53.194;6.132;2023-06-14T04:09:41;13.00;99.90
76567;DHT22;65428;53.194;6.132;2023-06-14T04:12:07;13.10;99.90
76567;DHT22;65428;53.194;6.132;2023-06-14T04:14:34;13.10;99.90
76567;DHT22;65428;53.194;6.132;2023-06-14T04:17:00;13.40;99.90
76567;DHT22;65428;53.194;6.132;2023-06-14T04:19:26;13.30;99.90
76567;DHT22;65428;53.194;6.132;2023-06-14T04:21:52;13.40;99.90
76567;DHT22;65428;53.194;6.132;2023-06-14T04:24:17;13.50;99.90
76567;DHT22;65428;53.194;6.132;2023-06-14T04:26:44;13.60;99.90
76567;DHT22;65428;53.194;6.132;2023-06-14T04:29:14;13.90;99.90
76567;DHT22;65428;53.194;6.132;2023-06-14T04:31:42;13.80;99.90
76567;DHT22;65428;53.194;6.132;2023-06-14T04:34:08;13.90;99.90
76567;DHT22;65428;53.194;6.132;2023-06-14T04:36:34;14.00;99.90
76567;DHT22;65428;53.194;6.132;2023-06-14T04:39:02;14.20;99.90
76567;DHT22;65428;53.194;6.132;2023-06-14T04:41:32;14.30;99.90
76567;DHT22;65428;53.194;6.132;2023-06-14T04:43:59;14.40;99.90
76567;DHT22;65428;53.194;6.132;2023-06-14T04:46:30;14.60;99.90
76567;DHT22;65428;53.194;6.132;2023-06-14T04:48:57;14.90;99.90
76567;DHT22;65428;53.194;6.132;2023-06-14T04:51:28;14.90;99.90
76567;DHT22;65428;53.194;6.132;2023-06-14T04:53:59;15.00;99.90
76567;DHT22;65428;53.194;6.132;2023-06-14T04:56:24;15.30;99.90
76567;DHT22;65428;53.194;6.132;2023-06-14T04:58:51;15.40;99.90
76567;DHT22;65428;53.194;6.132;2023-06-14T05:01:18;15.50;99.90
76567;DHT22;65428;53.194;6.132;2023-06-14T05:03:44;15.70;99.90
76567;DHT22;65428;53.194;6.132;2023-06-14T05:06:11;16.10;99.90
76567;DHT22;65428;53.194;6.132;2023-06-14T05:08:37;16.00;99.90
76567;DHT22;65428;53.194;6.132;2023-06-14T05:11:03;16.20;99.90
76567;DHT22;65428;53.194;6.132;2023-06-14T05:13:28;16.30;99.90
76567;DHT22;65428;53.194;6.132;2023-06-14T05:15:54;16.40;99.90
76567;DHT22;65428;53.194;6.132;2023-06-14T05:18:19;16.60;99.90
76567;DHT22;65428;53.194;6.132;2023-06-14T05:20:45;16.70;99.90
76567;DHT22;65428;53.194;6.132;2023-06-14T05:23:11;16.80;99.90
76567;DHT22;65428;53.194;6.132;2023-06-14T05:25:42;16.90;99.90
76567;DHT22;65428;53.194;6.132;2023-06-14T05:28:08;17.10;99.90
76567;DHT22;65428;53.194;6.132;2023-06-14T05:30:34;17.40;99.90
76567;DHT22;65428;53.194;6.132;2023-06-14T05:33:00;17.50;99.90
76567;DHT22;65428;53.194;6.132;2023-06-14T05:35:25;17.80;99.90
76567;DHT22;65428;53.194;6.132;2023-06-14T05:37:52;17.60;99.90
76567;DHT22;65428;53.194;6.132;2023-06-14T05:40:19;17.80;99.90
76567;DHT22;65428;53.194;6.132;2023-06-14T05:42:45;17.90;99.90
76567;DHT22;65428;53.194;6.132;2023-06-14T05:45:11;18.00;99.90
76567;DHT22;65428;53.194;6.132;2023-06-14T05:47:37;18.00;99.90
76567;DHT22;65428;53.194;6.132;2023-06-14T05:50:03;18.10;99.90
76567;DHT22;65428;53.194;6.132;2023-06-14T05:52:28;18.10;99.90
76567;DHT22;65428;53.194;6.132;2023-06-14T05:54:55;18.20;99.90
76567;DHT22;65428;53.194;6.132;2023-06-14T05:57:20;18.20;99.90
76567;DHT22;65428;53.194;6.132;2023-06-14T05:59:46;18.40;99.90
76567;DHT22;65428;53.194;6.132;2023-06-14T06:02:12;18.50;99.90
76567;DHT22;65428;53.194;6.132;2023-06-14T06:04:37;18.60;99.90
76567;DHT22;65428;53.194;6.132;2023-06-14T06:07:03;18.80;99.90
76567;DHT22;65428;53.194;6.132;2023-06-14T06:09:29;18.80;99.90
76567;DHT22;65428;53.194;6.132;2023-06-14T06:11:55;18.90;99.90
76567;DHT22;65428;53.194;6.132;2023-06-14T06:14:21;18.90;99.90
76567;DHT22;65428;53.194;6.132;2023-06-14T06:16:46;19.10;99.90
76567;DHT22;65428;53.194;6.132;2023-06-14T06:19:12;19.20;99.90
76567;DHT22;65428;53.194;6.132;2023-06-14T06:21:38;19.30;99.90
76567;DHT22;65428;53.194;6.132;2023-06-14T06:24:05;19.40;99.90
76567;DHT22;65428;53.194;6.132;2023-06-14T06:26:31;19.50;99.90
76567;DHT22;65428;53.194;6.132;2023-06-14T06:28:58;19.50;99.90
76567;DHT22;65428;53.194;6.132;2023-06-14T06:31:24;19.60;98.60
76567;DHT22;65428;53.194;6.132;2023-06-14T06:33:51;19.70;99.40
76567;DHT22;65428;53.194;6.132;2023-06-14T06:36:16;19.90;98.40
76567;DHT22;65428;53.194;6.132;2023-06-14T06:38:42;20.00;99.60
76567;DHT22;65428;53.194;6.132;2023-06-14T06:41:08;20.00;98.00
76567;DHT22;65428;53.194;6.132;2023-06-14T06:43:33;20.00;99.30
76567;DHT22;65428;53.194;6.132;2023-06-14T06:45:59;20.40;98.50
76567;DHT22;65428;53.194;6.132;2023-06-14T06:48:24;20.40;98.00
76567;DHT22;65428;53.194;6.132;2023-06-14T06:50:50;20.40;95.60
76567;DHT22;65428;53.194;6.132;2023-06-14T06:53:16;20.40;97.70
76567;DHT22;65428;53.194;6.132;2023-06-14T06:55:44;20.50;94.60
76567;DHT22;65428;53.194;6.132;2023-06-14T06:58:09;20.50;95.70
76567;DHT22;65428;53.194;6.132;2023-06-14T07:00:35;20.80;95.10
76567;DHT22;65428;53.194;6.132;2023-06-14T07:03:01;20.80;95.80
76567;DHT22;65428;53.194;6.132;2023-06-14T07:05:26;21.00;95.00
76567;DHT22;65428;53.194;6.132;2023-06-14T07:07:52;21.00;95.40
76567;DHT22;65428;53.194;6.132;2023-06-14T07:10:18;21.20;92.30
76567;DHT22;65428;53.194;6.132;2023-06-14T07:12:44;21.40;88.40
76567;DHT22;65428;53.194;6.132;2023-06-14T07:15:10;21.20;89.20
76567;DHT22;65428;53.194;6.132;2023-06-14T07:17:36;21.30;89.00
76567;DHT22;65428;53.194;6.132;2023-06-14T07:20:03;21.20;86.80
76567;DHT22;65428;53.194;6.132;2023-06-14T07:22:32;21.50;84.50
76567;DHT22;65428;53.194;6.132;2023-06-14T07:24:58;21.70;82.80
76567;DHT22;65428;53.194;6.132;2023-06-14T07:27:24;21.70;75.20
76567;DHT22;65428;53.194;6.132;2023-06-14T07:29:49;21.90;75.70
76567;DHT22;65428;53.194;6.132;2023-06-14T07:32:15;22.10;66.90
76567;DHT22;65428;53.194;6.132;2023-06-14T07:34:40;22.00;70.70
76567;DHT22;65428;53.194;6.132;2023-06-14T07:37:06;21.90;69.10
76567;DHT22;65428;53.194;6.132;2023-06-14T07:39:32;22.30;67.30
76567;DHT22;65428;53.194;6.132;2023-06-14T07:41:57;22.30;68.00
76567;DHT22;65428;53.194;6.132;2023-06-14T07:44:23;22.10;65.00
76567;DHT22;65428;53.194;6.132;2023-06-14T07:46:48;22.40;67.80
76567;DHT22;65428;53.194;6.132;2023-06-14T07:49:17;22.30;65.10
76567;DHT22;65428;53.194;6.132;2023-06-14T07:51:42;22.30;62.00
76567;DHT22;65428;53.194;6.132;2023-06-14T07:54:09;22.50;62.40
76567;DHT22;65428;53.194;6.132;2023-06-14T07:56:35;22.40;65.10
76567;DHT22;65428;53.194;6.132;2023-06-14T07:59:01;22.40;64.70
76567;DHT22;65428;53.194;6.132;2023-06-14T08:01:27;22.70;61.00
76567;DHT22;65428;53.194;6.132;2023-06-14T08:03:53;22.40;62.20
76567;DHT22;65428;53.194;6.132;2023-06-14T08:06:19;22.50;59.10
76567;DHT22;65428;53.194;6.132;2023-06-14T08:08:45;22.60;61.90
76567;DHT22;65428;53.194;6.132;2023-06-14T08:11:10;22.60;60.30
76567;DHT22;65428;53.194;6.132;2023-06-14T08:13:36;22.70;59.80
76567;DHT22;65428;53.194;6.132;2023-06-14T08:16:02;23.00;60.10
76567;DHT22;65428;53.194;6.132;2023-06-14T08:18:30;23.00;55.70
76567;DHT22;65428;53.194;6.132;2023-06-14T08:20:55;23.00;56.50
76567;DHT22;65428;53.194;6.132;2023-06-14T08:23:23;23.10;57.90
76567;DHT22;65428;53.194;6.132;2023-06-14T08:25:49;23.00;55.90
76567;DHT22;65428;53.194;6.132;2023-06-14T08:28:15;23.20;57.10
76567;DHT22;65428;53.194;6.132;2023-06-14T08:30:42;23.40;60.10
76567;DHT22;65428;53.194;6.132;2023-06-14T08:33:08;23.60;63.00
76567;DHT22;65428;53.194;6.132;2023-06-14T08:35:33;23.50;60.20
76567;DHT22;65428;53.194;6.132;2023-06-14T08:38:02;23.60;61.50
76567;DHT22;65428;53.194;6.132;2023-06-14T08:40:30;23.90;59.50
76567;DHT22;65428;53.194;6.132;2023-06-14T08:42:56;23.90;55.50
76567;DHT22;65428;53.194;6.132;2023-06-14T08:45:23;23.90;55.90
76567;DHT22;65428;53.194;6.132;2023-06-14T08:47:53;23.90;60.10
76567;DHT22;65428;53.194;6.132;2023-06-14T08:50:26;24.00;56.60
76567;DHT22;65428;53.194;6.132;2023-06-14T08:52:57;24.10;54.80
76567;DHT22;65428;53.194;6.132;2023-06-14T08:55:27;24.20;54.60
76567;DHT22;65428;53.194;6.132;2023-06-14T08:57:56;24.30;57.10
76567;DHT22;65428;53.194;6.132;2023-06-14T09:00:26;24.50;58.60
76567;DHT22;65428;53.194;6.132;2023-06-14T09:02:53;24.60;51.80
76567;DHT22;65428;53.194;6.132;2023-06-14T09:05:27;24.60;56.10
76567;DHT22;65428;53.194;6.132;2023-06-14T09:07:54;24.60;51.30
76567;DHT22;65428;53.194;6.132;2023-06-14T09:10:21;24.80;52.50
76567;DHT22;65428;53.194;6.132;2023-06-14T09:12:47;24.80;51.40
76567;DHT22;65428;53.194;6.132;2023-06-14T09:15:13;24.70;51.40
76567;DHT22;65428;53.194;6.132;2023-06-14T09:17:40;24.80;50.70
76567;DHT22;65428;53.194;6.132;2023-06-14T09:20:07;24.90;50.70
76567;DHT22;65428;53.194;6.132;2023-06-14T09:22:39;25.10;49.40
76567;DHT22;65428;53.194;6.132;2023-06-14T09:25:05;25.10;48.40
76567;DHT22;65428;53.194;6.132;2023-06-14T09:27:32;25.10;52.00
76567;DHT22;65428;53.194;6.132;2023-06-14T09:29:58;25.20;49.70
76567;DHT22;65428;53.194;6.132;2023-06-14T09:32:25;25.20;49.00
76567;DHT22;65428;53.194;6.132;2023-06-14T09:34:50;25.40;49.00
76567;DHT22;65428;53.194;6.132;2023-06-14T09:37:30;25.60;48.00
76567;DHT22;65428;53.194;6.132;2023-06-14T09:39:56;25.60;47.60
76567;DHT22;65428;53.194;6.132;2023-06-14T09:42:22;25.90;48.20
76567;DHT22;65428;53.194;6.132;2023-06-14T09:44:52;26.00;46.90
76567;DHT22;65428;53.194;6.132;2023-06-14T09:47:19;26.00;46.40
76567;DHT22;65428;53.194;6.132;2023-06-14T09:49:44;26.20;48.20
76567;DHT22;65428;53.194;6.132;2023-06-14T09:52:15;26.00;44.70
76567;DHT22;65428;53.194;6.132;2023-06-14T09:54:42;26.00;44.60
76567;DHT22;65428;53.194;6.132;2023-06-14T09:57:10;26.00;46.00
76567;DHT22;65428;53.194;6.132;2023-06-14T09:59:46;26.00;45.00
76567;DHT22;65428;53.194;6.132;2023-06-14T10:02:25;26.00;45.30
76567;DHT22;65428;53.194;6.132;2023-06-14T10:05:05;26.10;45.40
76567;DHT22;65428;53.194;6.132;2023-06-14T10:07:55;26.20;44.30
76567;DHT22;65428;53.194;6.132;2023-06-14T10:10:24;26.50;45.70
76567;DHT22;65428;53.194;6.132;2023-06-14T10:12:51;26.50;43.90
76567;DHT22;65428;53.194;6.132;2023-06-14T10:18:24;27.10;43.60
76567;DHT22;65428;53.194;6.132;2023-06-14T10:21:13;27.40;43.20
76567;DHT22;65428;53.194;6.132;2023-06-14T10:23:43;27.50;42.70
76567;DHT22;65428;53.194;6.132;2023-06-14T10:26:20;27.90;43.70
76567;DHT22;65428;53.194;6.132;2023-06-14T10:29:15;27.90;43.60
76567;DHT22;65428;53.194;6.132;2023-06-14T10:31:46;27.90;41.00
76567;DHT22;65428;53.194;6.132;2023-06-14T10:34:20;28.00;40.60
76567;DHT22;65428;53.194;6.132;2023-06-14T10:37:03;28.20;39.80
76567;DHT22;65428;53.194;6.132;2023-06-14T10:39:29;28.20;40.10
76567;DHT22;65428;53.194;6.132;2023-06-14T10:41:56;28.50;40.40
76567;DHT22;65428;53.194;6.132;2023-06-14T10:46:49;29.10;39.90
76567;DHT22;65428;53.194;6.132;2023-06-14T10:52:08;29.60;39.60
76567;DHT22;65428;53.194;6.132;2023-06-14T10:54:37;29.70;37.80
76567;DHT22;65428;53.194;6.132;2023-06-14T10:57:06;29.90;36.50
76567;DHT22;65428;53.194;6.132;2023-06-14T10:59:33;29.80;37.00
76567;DHT22;65428;53.194;6.132;2023-06-14T11:02:27;29.80;37.60
76567;DHT22;65428;53.194;6.132;2023-06-14T11:05:03;29.90;36.50
76567;DHT22;65428;53.194;6.132;2023-06-14T11:13:01;30.40;34.90
76567;DHT22;65428;53.194;6.132;2023-06-14T11:15:35;30.50;36.70
76567;DHT22;65428;53.194;6.132;2023-06-14T11:18:02;30.70;36.00
76567;DHT22;65428;53.194;6.132;2023-06-14T11:20:31;30.80;35.60
76567;DHT22;65428;53.194;6.132;2023-06-14T11:22:57;30.90;35.70
76567;DHT22;65428;53.194;6.132;2023-06-14T11:25:23;31.00;35.50
76567;DHT22;65428;53.194;6.132;2023-06-14T11:27:50;31.00;35.00
76567;DHT22;65428;53.194;6.132;2023-06-14T11:30:16;31.10;34.20
76567;DHT22;65428;53.194;6.132;2023-06-14T11:32:42;31.20;35.10
76567;DHT22;65428;53.194;6.132;2023-06-14T11:35:08;31.20;34.80
76567;DHT22;65428;53.194;6.132;2023-06-14T11:37:36;31.30;34.40
76567;DHT22;65428;53.194;6.132;2023-06-14T11:40:06;31.60;34.00
76567;DHT22;65428;53.194;6.132;2023-06-14T11:42:37;31.60;35.30
76567;DHT22;65428;53.194;6.132;2023-06-14T11:45:04;31.80;35.00
76567;DHT22;65428;53.194;6.132;2023-06-14T11:47:35;31.80;33.20
76567;DHT22;65428;53.194;6.132;2023-06-14T11:50:05;32.00;34.10
76567;DHT22;65428;53.194;6.132;2023-06-14T11:52:32;32.10;34.40
76567;DHT22;65428;53.194;6.132;2023-06-14T11:54:58;32.20;33.20
76567;DHT22;65428;53.194;6.132;2023-06-14T11:57:24;32.10;32.70
76567;DHT22;65428;53.194;6.132;2023-06-14T11:59:50;31.90;33.40
76567;DHT22;65428;53.194;6.132;2023-06-14T12:02:18;32.10;34.80
76567;DHT22;65428;53.194;6.132;2023-06-14T12:04:46;32.60;32.50
76567;DHT22;65428;53.194;6.132;2023-06-14T12:07:13;32.60;33.30
76567;DHT22;65428;53.194;6.132;2023-06-14T12:10:04;32.90;33.20
76567;DHT22;65428;53.194;6.132;2023-06-14T12:12:35;33.10;32.50
76567;DHT22;65428;53.194;6.132;2023-06-14T12:15:04;32.90;31.40
76567;DHT22;65428;53.194;6.132;2023-06-14T12:17:35;32.50;30.80
76567;DHT22;65428;53.194;6.132;2023-06-14T12:20:12;32.10;32.20
76567;DHT22;65428;53.194;6.132;2023-06-14T12:22:55;31.80;32.80
76567;DHT22;65428;53.194;6.132;2023-06-14T12:25:35;31.40;31.30
76567;DHT22;65428;53.194;6.132;2023-06-14T12:28:09;31.10;33.70
76567;DHT22;65428;53.194;6.132;2023-06-14T12:30:38;31.50;35.30
76567;DHT22;65428;53.194;6.132;2023-06-14T12:33:04;31.90;34.10
76567;DHT22;65428;53.194;6.132;2023-06-14T12:35:30;31.90;32.70
76567;DHT22;65428;53.194;6.132;2023-06-14T12:37:55;32.00;33.70
76567;DHT22;65428;53.194;6.132;2023-06-14T12:40:22;32.30;32.80
76567;DHT22;65428;53.194;6.132;2023-06-14T12:42:47;32.50;32.60
76567;DHT22;65428;53.194;6.132;2023-06-14T12:45:13;32.40;32.40
76567;DHT22;65428;53.194;6.132;2023-06-14T12:47:39;32.70;34.50
76567;DHT22;65428;53.194;6.132;2023-06-14T12:50:05;33.00;32.10
76567;DHT22;65428;53.194;6.132;2023-06-14T12:52:31;33.40;30.70
76567;DHT22;65428;53.194;6.132;2023-06-14T12:54:57;33.70;31.50
76567;DHT22;65428;53.194;6.132;2023-06-14T12:57:23;33.80;30.60
76567;DHT22;65428;53.194;6.132;2023-06-14T12:59:49;33.50;30.60
76567;DHT22;65428;53.194;6.132;2023-06-14T13:02:17;33.30;30.30
76567;DHT22;65428;53.194;6.132;2023-06-14T13:04:43;33.50;30.40
76567;DHT22;65428;53.194;6.132;2023-06-14T13:07:09;33.40;30.90
76567;DHT22;65428;53.194;6.132;2023-06-14T13:09:36;33.50;30.50
76567;DHT22;65428;53.194;6.132;2023-06-14T13:12:02;33.60;31.60
76567;DHT22;65428;53.194;6.132;2023-06-14T13:14:28;33.80;29.40
76567;DHT22;65428;53.194;6.132;2023-06-14T13:16:54;33.70;30.60
76567;DHT22;65428;53.194;6.132;2023-06-14T13:19:21;34.00;30.90
76567;DHT22;65428;53.194;6.132;2023-06-14T13:21:47;34.20;29.80
76567;DHT22;65428;53.194;6.132;2023-06-14T13:24:13;34.50;29.20
76567;DHT22;65428;53.194;6.132;2023-06-14T13:26:39;34.80;29.30
76567;DHT22;65428;53.194;6.132;2023-06-14T13:29:05;35.20;30.50
76567;DHT22;65428;53.194;6.132;2023-06-14T13:31:30;35.60;28.30
76567;DHT22;65428;53.194;6.132;2023-06-14T13:33:56;35.70;28.50
76567;DHT22;65428;53.194;6.132;2023-06-14T13:36:22;35.80;27.80
76567;DHT22;65428;53.194;6.132;2023-06-14T13:38:47;36.00;28.40
76567;DHT22;65428;53.194;6.132;2023-06-14T13:41:13;35.70;27.30
76567;DHT22;65428;53.194;6.132;2023-06-14T13:43:38;35.00;27.90
76567;DHT22;65428;53.194;6.132;2023-06-14T13:46:04;34.50;28.20
76567;DHT22;65428;53.194;6.132;2023-06-14T13:48:29;34.50;28.40
76567;DHT22;65428;53.194;6.132;2023-06-14T13:50:55;34.50;28.70
76567;DHT22;65428;53.194;6.132;2023-06-14T13:53:21;34.40;28.60
76567;DHT22;65428;53.194;6.132;2023-06-14T13:55:47;34.20;29.20
76567;DHT22;65428;53.194;6.132;2023-06-14T13:58:13;34.40;29.50
76567;DHT22;65428;53.194;6.132;2023-06-14T14:00:40;34.60;29.00
76567;DHT22;65428;53.194;6.132;2023-06-14T14:03:06;34.90;28.70
76567;DHT22;65428;53.194;6.132;2023-06-14T14:05:32;34.40;28.00
76567;DHT22;65428;53.194;6.132;2023-06-14T14:07:58;33.60;28.10
76567;DHT22;65428;53.194;6.132;2023-06-14T14:10:24;33.40;28.70
76567;DHT22;65428;53.194;6.132;2023-06-14T14:12:51;33.60;29.50
76567;DHT22;65428;53.194;6.132;2023-06-14T14:15:17;34.00;29.80
76567;DHT22;65428;53.194;6.132;2023-06-14T14:17:42;34.70;30.90
76567;DHT22;65428;53.194;6.132;2023-06-14T14:20:09;35.20;30.50
76567;DHT22;65428;53.194;6.132;2023-06-14T14:22:35;35.40;28.00
76567;DHT22;65428;53.194;6.132;2023-06-14T14:25:00;35.30;28.40
76567;DHT22;65428;53.194;6.132;2023-06-14T14:27:26;35.70;28.10
76567;DHT22;65428;53.194;6.132;2023-06-14T14:29:51;35.70;28.50
76567;DHT22;65428;53.194;6.132;2023-06-14T14:32:19;35.10;28.30
76567;DHT22;65428;53.194;6.132;2023-06-14T14:34:45;34.10;28.40
76567;DHT22;65428;53.194;6.132;2023-06-14T14:37:11;33.40;28.90
76567;DHT22;65428;53.194;6.132;2023-06-14T14:39:37;32.70;30.20
76567;DHT22;65428;53.194;6.132;2023-06-14T14:42:03;32.20;31.20
76567;DHT22;65428;53.194;6.132;2023-06-14T14:44:29;31.80;30.90
76567;DHT22;65428;53.194;6.132;2023-06-14T14:46:54;31.40;30.90
76567;DHT22;65428;53.194;6.132;2023-06-14T14:49:20;31.10;32.20
76567;DHT22;65428;53.194;6.132;2023-06-14T14:51:45;30.50;32.30
76567;DHT22;65428;53.194;6.132;2023-06-14T14:54:11;30.10;33.20
76567;DHT22;65428;53.194;6.132;2023-06-14T14:56:37;30.00;34.60
76567;DHT22;65428;53.194;6.132;2023-06-14T14:59:03;29.40;38.00
76567;DHT22;65428;53.194;6.132;2023-06-14T15:01:29;29.20;40.90
76567;DHT22;65428;53.194;6.132;2023-06-14T15:03:55;29.00;40.20
76567;DHT22;65428;53.194;6.132;2023-06-14T15:06:21;28.70;40.90
76567;DHT22;65428;53.194;6.132;2023-06-14T15:08:46;28.50;42.00
76567;DHT22;65428;53.194;6.132;2023-06-14T15:11:12;28.30;43.50
76567;DHT22;65428;53.194;6.132;2023-06-14T15:13:37;28.10;44.60
76567;DHT22;65428;53.194;6.132;2023-06-14T15:16:03;28.00;43.70
76567;DHT22;65428;53.194;6.132;2023-06-14T15:18:29;28.10;44.60
76567;DHT22;65428;53.194;6.132;2023-06-14T15:20:54;28.00;45.10
76567;DHT22;65428;53.194;6.132;2023-06-14T15:23:20;28.00;45.90
76567;DHT22;65428;53.194;6.132;2023-06-14T15:25:47;28.00;45.60
76567;DHT22;65428;53.194;6.132;2023-06-14T15:28:13;27.90;46.00
76567;DHT22;65428;53.194;6.132;2023-06-14T15:30:39;27.60;46.30
76567;DHT22;65428;53.194;6.132;2023-06-14T15:33:05;27.70;47.40
76567;DHT22;65428;53.194;6.132;2023-06-14T15:35:30;27.70;46.10
76567;DHT22;65428;53.194;6.132;2023-06-14T15:37:56;27.60;45.90
76567;DHT22;65428;53.194;6.132;2023-06-14T15:40:22;27.40;45.90
76567;DHT22;65428;53.194;6.132;2023-06-14T15:42:47;27.10;46.90
76567;DHT22;65428;53.194;6.132;2023-06-14T15:45:13;27.00;47.50
76567;DHT22;65428;53.194;6.132;2023-06-14T15:47:39;26.90;49.00
76567;DHT22;65428;53.194;6.132;2023-06-14T15:50:05;26.80;49.90